sensor_id;sensor_type;location;lat;lon;timestamp;temperature;humidity
56162;DHT22;42045;52.986;6.014;2023-05-23T00:01:04;13.60;99.90
56162;DHT22;42045;52.986;6.014;2023-05-23T00:03:33;13.60;99.90
56162;DHT22;42045;52.986;6.014;2023-05-23T00:06:00;13.60;99.90
56162;DHT22;42045;52.986;6.014;2023-05-23T00:08:26;13.60;99.90
56162;DHT22;42045;52.986;6.014;2023-05-23T00:10:51;13.60;99.90
56162;DHT22;42045;52.986;6.014;2023-05-23T00:13:17;13.60;99.90
56162;DHT22;42045;52.986;6.014;2023-05-23T00:15:44;13.50;99.90
56162;DHT22;42045;52.986;6.014;2023-05-23T00:18:10;13.50;99.90
56162;DHT22;42045;52.986;6.014;2023-05-23T00:20:37;13.50;99.90
56162;DHT22;42045;52.986;6.014;2023-05-23T00:23:05;13.50;99.90
56162;DHT22;42045;52.986;6.014;2023-05-23T00:25:32;13.50;99.90
56162;DHT22;42045;52.986;6.014;2023-05-23T00:28:02;13.50;99.90
56162;DHT22;42045;52.986;6.014;2023-05-23T00:30:29;13.50;99.90
56162;DHT22;42045;52.986;6.014;2023-05-23T00:32:55;13.40;99.90
56162;DHT22;42045;52.986;6.014;2023-05-23T00:35:21;13.40;99.90
56162;DHT22;42045;52.986;6.014;2023-05-23T00:37:48;13.40;99.90
56162;DHT22;42045;52.986;6.014;2023-05-23T00:40:17;13.40;99.90
56162;DHT22;42045;52.986;6.014;2023-05-23T00:42:43;13.40;99.90
56162;DHT22;42045;52.986;6.014;2023-05-23T00:45:09;13.40;99.90
56162;DHT22;42045;52.986;6.014;2023-05-23T00:47:40;13.40;99.90
56162;DHT22;42045;52.986;6.014;2023-05-23T00:50:08;13.40;99.90
56162;DHT22;42045;52.986;6.014;2023-05-23T00:52:34;13.40;99.90
56162;DHT22;42045;52.986;6.014;2023-05-23T00:55:00;13.40;99.90
56162;DHT22;42045;52.986;6.014;2023-05-23T00:57:27;13.40;99.90
56162;DHT22;42045;52.986;6.014;2023-05-23T00:59:53;13.40;99.90
56162;DHT22;42045;52.986;6.014;2023-05-23T01:02:18;13.40;99.90
56162;DHT22;42045;52.986;6.014;2023-05-23T01:04:48;13.40;99.90
56162;DHT22;42045;52.986;6.014;2023-05-23T01:07:21;13.40;99.90
56162;DHT22;42045;52.986;6.014;2023-05-23T01:09:47;13.40;99.90
56162;DHT22;42045;52.986;6.014;2023-05-23T01:12:24;13.40;99.90
56162;DHT22;42045;52.986;6.014;2023-05-23T01:20:08;13.30;99.90
56162;DHT22;42045;52.986;6.014;2023-05-23T01:28:38;13.10;99.90
56162;DHT22;42045;52.986;6.014;2023-05-23T01:31:07;13.10;99.90
56162;DHT22;42045;52.986;6.014;2023-05-23T01:33:35;13.10;99.90
56162;DHT22;42045;52.986;6.014;2023-05-23T01:36:02;13.10;99.90
56162;DHT22;42045;52.986;6.014;2023-05-23T01:38:28;13.10;99.90
56162;DHT22;42045;52.986;6.014;2023-05-23T01:40:54;13.10;99.90
56162;DHT22;42045;52.986;6.014;2023-05-23T01:43:20;13.10;99.90
56162;DHT22;42045;52.986;6.014;2023-05-23T01:45:47;13.00;99.90
56162;DHT22;42045;52.986;6.014;2023-05-23T01:48:14;13.10;99.90
56162;DHT22;42045;52.986;6.014;2023-05-23T01:50:42;13.00;99.90
56162;DHT22;42045;52.986;6.014;2023-05-23T01:53:12;13.00;99.90
56162;DHT22;42045;52.986;6.014;2023-05-23T01:55:39;13.00;99.90
56162;DHT22;42045;52.986;6.014;2023-05-23T01:58:05;13.00;99.90
56162;DHT22;42045;52.986;6.014;2023-05-23T02:00:31;12.90;99.90
56162;DHT22;42045;52.986;6.014;2023-05-23T02:02:57;12.90;99.90
56162;DHT22;42045;52.986;6.014;2023-05-23T02:05:23;12.90;99.90
56162;DHT22;42045;52.986;6.014;2023-05-23T02:07:49;12.90;99.90
56162;DHT22;42045;52.986;6.014;2023-05-23T02:10:15;12.90;99.90
56162;DHT22;42045;52.986;6.014;2023-05-23T02:12:40;12.90;99.90
56162;DHT22;42045;52.986;6.014;2023-05-23T02:15:06;12.90;99.90
56162;DHT22;42045;52.986;6.014;2023-05-23T02:17:32;12.90;99.90
56162;DHT22;42045;52.986;6.014;2023-05-23T02:19:58;13.00;99.90
56162;DHT22;42045;52.986;6.014;2023-05-23T02:22:24;12.90;99.90
56162;DHT22;42045;52.986;6.014;2023-05-23T02:24:50;12.90;99.90
56162;DHT22;42045;52.986;6.014;2023-05-23T02:27:16;12.90;99.90
56162;DHT22;42045;52.986;6.014;2023-05-23T02:29:42;12.90;99.90
56162;DHT22;42045;52.986;6.014;2023-05-23T02:32:08;12.90;99.90
56162;DHT22;42045;52.986;6.014;2023-05-23T02:34:33;13.00;99.90
56162;DHT22;42045;52.986;6.014;2023-05-23T02:36:59;13.00;99.90
56162;DHT22;42045;52.986;6.014;2023-05-23T02:39:26;13.00;99.90
56162;DHT22;42045;52.986;6.014;2023-05-23T02:41:51;12.90;99.90
56162;DHT22;42045;52.986;6.014;2023-05-23T02:44:17;12.90;99.90
56162;DHT22;42045;52.986;6.014;2023-05-23T02:46:44;12.90;99.90
56162;DHT22;42045;52.986;6.014;2023-05-23T02:49:10;12.80;99.90
56162;DHT22;42045;52.986;6.014;2023-05-23T02:51:36;12.80;99.90
56162;DHT22;42045;52.986;6.014;2023-05-23T02:54:01;12.80;99.90
56162;DHT22;42045;52.986;6.014;2023-05-23T02:56:27;12.80;99.90
56162;DHT22;42045;52.986;6.014;2023-05-23T02:58:53;12.70;99.90
56162;DHT22;42045;52.986;6.014;2023-05-23T03:01:19;12.70;99.90
56162;DHT22;42045;52.986;6.014;2023-05-23T03:03:45;12.70;99.90
56162;DHT22;42045;52.986;6.014;2023-05-23T03:06:10;12.70;99.90
56162;DHT22;42045;52.986;6.014;2023-05-23T03:08:40;12.70;99.90
56162;DHT22;42045;52.986;6.014;2023-05-23T03:11:06;12.70;99.90
56162;DHT22;42045;52.986;6.014;2023-05-23T03:13:33;12.60;99.90
56162;DHT22;42045;52.986;6.014;2023-05-23T03:15:59;12.70;99.90
56162;DHT22;42045;52.986;6.014;2023-05-23T03:18:24;12.60;99.90
56162;DHT22;42045;52.986;6.014;2023-05-23T03:20:50;12.60;99.90
56162;DHT22;42045;52.986;6.014;2023-05-23T03:23:16;12.60;99.90
56162;DHT22;42045;52.986;6.014;2023-05-23T03:25:42;12.60;99.90
56162;DHT22;42045;52.986;6.014;2023-05-23T03:28:08;12.60;99.90
56162;DHT22;42045;52.986;6.014;2023-05-23T03:30:33;12.50;99.90
56162;DHT22;42045;52.986;6.014;2023-05-23T03:32:59;12.60;99.90
56162;DHT22;42045;52.986;6.014;2023-05-23T03:35:26;12.50;99.90
56162;DHT22;42045;52.986;6.014;2023-05-23T03:37:52;12.50;99.90
56162;DHT22;42045;52.986;6.014;2023-05-23T03:40:17;12.50;99.90
56162;DHT22;42045;52.986;6.014;2023-05-23T03:42:43;12.50;99.90
56162;DHT22;42045;52.986;6.014;2023-05-23T03:45:09;12.40;99.90
56162;DHT22;42045;52.986;6.014;2023-05-23T03:47:34;12.40;99.90
56162;DHT22;42045;52.986;6.014;2023-05-23T03:50:00;12.40;99.90
56162;DHT22;42045;52.986;6.014;2023-05-23T03:52:26;12.40;99.90
56162;DHT22;42045;52.986;6.014;2023-05-23T03:54:53;12.40;99.90
56162;DHT22;42045;52.986;6.014;2023-05-23T03:57:18;12.30;99.90
56162;DHT22;42045;52.986;6.014;2023-05-23T03:59:44;12.30;99.90
56162;DHT22;42045;52.986;6.014;2023-05-23T04:02:09;12.30;99.90
56162;DHT22;42045;52.986;6.014;2023-05-23T04:04:35;12.30;99.90
56162;DHT22;42045;52.986;6.014;2023-05-23T04:07:01;12.30;99.90
56162;DHT22;42045;52.986;6.014;2023-05-23T04:09:27;12.30;99.90
56162;DHT22;42045;52.986;6.014;2023-05-23T04:11:52;12.30;99.90
56162;DHT22;42045;52.986;6.014;2023-05-23T04:14:18;12.30;99.90
56162;DHT22;42045;52.986;6.014;2023-05-23T04:16:46;12.30;99.90
56162;DHT22;42045;52.986;6.014;2023-05-23T04:19:12;12.20;99.90
56162;DHT22;42045;52.986;6.014;2023-05-23T04:21:38;12.20;99.90
56162;DHT22;42045;52.986;6.014;2023-05-23T04:24:04;12.20;99.90
56162;DHT22;42045;52.986;6.014;2023-05-23T04:26:30;12.20;99.90
56162;DHT22;42045;52.986;6.014;2023-05-23T04:28:56;12.20;99.90
56162;DHT22;42045;52.986;6.014;2023-05-23T04:31:21;12.20;99.90
56162;DHT22;42045;52.986;6.014;2023-05-23T04:33:47;12.20;99.90
56162;DHT22;42045;52.986;6.014;2023-05-23T04:36:13;12.10;99.90
56162;DHT22;42045;52.986;6.014;2023-05-23T04:38:39;12.10;99.90
56162;DHT22;42045;52.986;6.014;2023-05-23T04:41:06;12.10;99.90
56162;DHT22;42045;52.986;6.014;2023-05-23T04:43:32;12.10;99.90
56162;DHT22;42045;52.986;6.014;2023-05-23T04:46:10;12.10;99.90
56162;DHT22;42045;52.986;6.014;2023-05-23T04:48:36;12.10;99.90
56162;DHT22;42045;52.986;6.014;2023-05-23T04:51:03;12.00;99.90
56162;DHT22;42045;52.986;6.014;2023-05-23T04:53:36;12.00;99.90
56162;DHT22;42045;52.986;6.014;2023-05-23T04:56:01;11.90;99.90
56162;DHT22;42045;52.986;6.014;2023-05-23T04:58:27;11.90;99.90
56162;DHT22;42045;52.986;6.014;2023-05-23T05:00:53;11.90;99.90
56162;DHT22;42045;52.986;6.014;2023-05-23T05:03:18;11.80;99.90
56162;DHT22;42045;52.986;6.014;2023-05-23T05:05:44;11.90;99.90
56162;DHT22;42045;52.986;6.014;2023-05-23T05:08:10;11.80;99.90
56162;DHT22;42045;52.986;6.014;2023-05-23T05:10:37;11.70;99.90
56162;DHT22;42045;52.986;6.014;2023-05-23T05:13:02;11.70;99.90
56162;DHT22;42045;52.986;6.014;2023-05-23T05:15:28;11.70;99.90
56162;DHT22;42045;52.986;6.014;2023-05-23T05:17:53;11.70;99.90
56162;DHT22;42045;52.986;6.014;2023-05-23T05:20:19;11.60;99.90
56162;DHT22;42045;52.986;6.014;2023-05-23T05:22:46;11.70;99.90
56162;DHT22;42045;52.986;6.014;2023-05-23T05:25:11;11.60;99.90
56162;DHT22;42045;52.986;6.014;2023-05-23T05:27:38;11.70;99.90
56162;DHT22;42045;52.986;6.014;2023-05-23T05:30:08;11.70;99.90
56162;DHT22;42045;52.986;6.014;2023-05-23T05:32:34;11.70;99.90
56162;DHT22;42045;52.986;6.014;2023-05-23T05:35:00;11.80;99.90
56162;DHT22;42045;52.986;6.014;2023-05-23T05:37:26;11.80;99.90
56162;DHT22;42045;52.986;6.014;2023-05-23T05:39:52;11.80;99.90
56162;DHT22;42045;52.986;6.014;2023-05-23T05:42:22;11.80;99.90
56162;DHT22;42045;52.986;6.014;2023-05-23T05:44:48;11.80;99.90
56162;DHT22;42045;52.986;6.014;2023-05-23T05:47:14;11.90;99.90
56162;DHT22;42045;52.986;6.014;2023-05-23T05:49:40;11.90;99.90
56162;DHT22;42045;52.986;6.014;2023-05-23T05:52:06;11.80;99.90
56162;DHT22;42045;52.986;6.014;2023-05-23T05:54:32;11.80;99.90
56162;DHT22;42045;52.986;6.014;2023-05-23T05:56:58;11.80;99.90
56162;DHT22;42045;52.986;6.014;2023-05-23T05:59:24;11.70;99.90
56162;DHT22;42045;52.986;6.014;2023-05-23T06:01:50;11.70;99.90
56162;DHT22;42045;52.986;6.014;2023-05-23T06:04:16;11.70;99.90
56162;DHT22;42045;52.986;6.014;2023-05-23T06:06:42;11.60;99.90
56162;DHT22;42045;52.986;6.014;2023-05-23T06:09:08;11.70;99.90
56162;DHT22;42045;52.986;6.014;2023-05-23T06:11:35;11.50;99.90
56162;DHT22;42045;52.986;6.014;2023-05-23T06:14:04;11.60;99.90
56162;DHT22;42045;52.986;6.014;2023-05-23T06:16:29;11.60;99.90
56162;DHT22;42045;52.986;6.014;2023-05-23T06:18:55;11.80;99.90
56162;DHT22;42045;52.986;6.014;2023-05-23T06:21:21;13.10;99.90
56162;DHT22;42045;52.986;6.014;2023-05-23T06:23:46;13.90;99.90
56162;DHT22;42045;52.986;6.014;2023-05-23T06:26:12;14.00;99.90
56162;DHT22;42045;52.986;6.014;2023-05-23T06:28:38;13.70;99.90
56162;DHT22;42045;52.986;6.014;2023-05-23T06:31:06;13.40;99.90
56162;DHT22;42045;52.986;6.014;2023-05-23T06:33:34;13.30;99.90
56162;DHT22;42045;52.986;6.014;2023-05-23T06:36:00;13.30;99.90
56162;DHT22;42045;52.986;6.014;2023-05-23T06:38:30;13.30;99.90
56162;DHT22;42045;52.986;6.014;2023-05-23T06:40:58;13.40;99.90
56162;DHT22;42045;52.986;6.014;2023-05-23T06:43:24;13.50;99.90
56162;DHT22;42045;52.986;6.014;2023-05-23T06:45:50;13.40;99.90
56162;DHT22;42045;52.986;6.014;2023-05-23T06:48:16;13.50;99.90
56162;DHT22;42045;52.986;6.014;2023-05-23T06:50:41;13.50;99.90
56162;DHT22;42045;52.986;6.014;2023-05-23T06:53:07;13.90;99.90
56162;DHT22;42045;52.986;6.014;2023-05-23T06:55:33;14.50;99.90
56162;DHT22;42045;52.986;6.014;2023-05-23T06:57:59;14.70;99.90
56162;DHT22;42045;52.986;6.014;2023-05-23T07:00:25;14.60;99.90
56162;DHT22;42045;52.986;6.014;2023-05-23T07:02:51;14.50;99.90
56162;DHT22;42045;52.986;6.014;2023-05-23T07:05:16;14.50;99.90
56162;DHT22;42045;52.986;6.014;2023-05-23T07:07:42;14.40;99.90
56162;DHT22;42045;52.986;6.014;2023-05-23T07:10:08;14.20;99.90
56162;DHT22;42045;52.986;6.014;2023-05-23T07:12:34;13.90;99.90
56162;DHT22;42045;52.986;6.014;2023-05-23T07:15:01;13.70;99.90
56162;DHT22;42045;52.986;6.014;2023-05-23T07:17:26;13.40;99.90
56162;DHT22;42045;52.986;6.014;2023-05-23T07:19:54;13.20;99.90
56162;DHT22;42045;52.986;6.014;2023-05-23T07:22:20;13.20;99.90
56162;DHT22;42045;52.986;6.014;2023-05-23T07:24:46;13.00;99.90
56162;DHT22;42045;52.986;6.014;2023-05-23T07:27:11;13.00;99.90
56162;DHT22;42045;52.986;6.014;2023-05-23T07:29:37;12.90;99.90
56162;DHT22;42045;52.986;6.014;2023-05-23T07:32:03;12.90;99.90
56162;DHT22;42045;52.986;6.014;2023-05-23T07:34:29;13.00;99.90
56162;DHT22;42045;52.986;6.014;2023-05-23T07:36:55;13.00;99.90
56162;DHT22;42045;52.986;6.014;2023-05-23T07:39:21;13.10;99.90
56162;DHT22;42045;52.986;6.014;2023-05-23T07:41:48;13.20;99.90
56162;DHT22;42045;52.986;6.014;2023-05-23T07:44:16;13.30;99.90
56162;DHT22;42045;52.986;6.014;2023-05-23T07:46:42;13.40;99.90
56162;DHT22;42045;52.986;6.014;2023-05-23T07:49:08;13.60;99.90
56162;DHT22;42045;52.986;6.014;2023-05-23T07:51:33;13.90;99.90
56162;DHT22;42045;52.986;6.014;2023-05-23T07:53:59;14.00;99.90
56162;DHT22;42045;52.986;6.014;2023-05-23T07:56:25;14.00;99.90
56162;DHT22;42045;52.986;6.014;2023-05-23T07:58:51;14.50;99.90
56162;DHT22;42045;52.986;6.014;2023-05-23T08:01:17;15.20;99.90
56162;DHT22;42045;52.986;6.014;2023-05-23T08:03:43;15.60;99.90
56162;DHT22;42045;52.986;6.014;2023-05-23T08:06:09;15.70;99.90
56162;DHT22;42045;52.986;6.014;2023-05-23T08:08:35;15.50;99.90
56162;DHT22;42045;52.986;6.014;2023-05-23T08:11:01;15.50;99.90
56162;DHT22;42045;52.986;6.014;2023-05-23T08:13:26;15.60;99.90
56162;DHT22;42045;52.986;6.014;2023-05-23T08:15:53;15.70;99.90
56162;DHT22;42045;52.986;6.014;2023-05-23T08:18:18;16.00;99.90
56162;DHT22;42045;52.986;6.014;2023-05-23T08:20:44;16.00;99.90
56162;DHT22;42045;52.986;6.014;2023-05-23T08:23:10;15.90;99.90
56162;DHT22;42045;52.986;6.014;2023-05-23T08:25:37;15.80;99.90
56162;DHT22;42045;52.986;6.014;2023-05-23T08:28:03;16.00;99.90
56162;DHT22;42045;52.986;6.014;2023-05-23T08:30:29;16.20;99.90
56162;DHT22;42045;52.986;6.014;2023-05-23T08:32:55;16.30;99.90
56162;DHT22;42045;52.986;6.014;2023-05-23T08:35:22;16.10;99.90
56162;DHT22;42045;52.986;6.014;2023-05-23T08:37:49;16.20;99.90
56162;DHT22;42045;52.986;6.014;2023-05-23T08:40:20;15.90;99.90
56162;DHT22;42045;52.986;6.014;2023-05-23T08:42:47;16.00;99.90
56162;DHT22;42045;52.986;6.014;2023-05-23T08:45:13;16.00;99.90
56162;DHT22;42045;52.986;6.014;2023-05-23T08:47:42;16.00;99.90
56162;DHT22;42045;52.986;6.014;2023-05-23T08:50:13;16.00;99.90
56162;DHT22;42045;52.986;6.014;2023-05-23T08:52:58;16.10;99.90
56162;DHT22;42045;52.986;6.014;2023-05-23T08:55:24;15.70;99.90
56162;DHT22;42045;52.986;6.014;2023-05-23T08:57:53;15.60;99.90
56162;DHT22;42045;52.986;6.014;2023-05-23T09:00:20;15.80;99.90
56162;DHT22;42045;52.986;6.014;2023-05-23T09:02:46;15.80;99.90
56162;DHT22;42045;52.986;6.014;2023-05-23T09:05:13;16.10;99.90
56162;DHT22;42045;52.986;6.014;2023-05-23T09:07:39;16.40;99.90
56162;DHT22;42045;52.986;6.014;2023-05-23T09:10:06;16.60;99.90
56162;DHT22;42045;52.986;6.014;2023-05-23T09:12:36;16.80;99.90
56162;DHT22;42045;52.986;6.014;2023-05-23T09:15:05;17.10;99.90
56162;DHT22;42045;52.986;6.014;2023-05-23T09:17:33;17.20;99.90
56162;DHT22;42045;52.986;6.014;2023-05-23T09:20:07;17.00;99.90
56162;DHT22;42045;52.986;6.014;2023-05-23T09:22:34;17.40;99.90
56162;DHT22;42045;52.986;6.014;2023-05-23T09:25:01;17.30;99.90
56162;DHT22;42045;52.986;6.014;2023-05-23T09:27:26;17.50;99.90
56162;DHT22;42045;52.986;6.014;2023-05-23T09:29:52;17.50;99.90
56162;DHT22;42045;52.986;6.014;2023-05-23T09:32:19;16.60;99.90
56162;DHT22;42045;52.986;6.014;2023-05-23T09:37:20;16.30;99.90
56162;DHT22;42045;52.986;6.014;2023-05-23T09:39:49;16.10;99.90
56162;DHT22;42045;52.986;6.014;2023-05-23T09:42:22;16.10;99.90
56162;DHT22;42045;52.986;6.014;2023-05-23T09:44:48;16.20;99.90
56162;DHT22;42045;52.986;6.014;2023-05-23T09:47:17;16.30;99.90
56162;DHT22;42045;52.986;6.014;2023-05-23T09:49:44;16.80;99.90
56162;DHT22;42045;52.986;6.014;2023-05-23T09:52:10;16.80;99.90
56162;DHT22;42045;52.986;6.014;2023-05-23T09:54:36;16.40;99.90
56162;DHT22;42045;52.986;6.014;2023-05-23T09:57:02;16.40;99.90
56162;DHT22;42045;52.986;6.014;2023-05-23T09:59:34;16.60;99.90
56162;DHT22;42045;52.986;6.014;2023-05-23T10:02:02;16.50;99.90
56162;DHT22;42045;52.986;6.014;2023-05-23T10:04:33;16.70;99.90
56162;DHT22;42045;52.986;6.014;2023-05-23T10:07:25;16.50;99.90
56162;DHT22;42045;52.986;6.014;2023-05-23T10:09:57;16.60;99.90
56162;DHT22;42045;52.986;6.014;2023-05-23T10:12:39;16.30;99.90
56162;DHT22;42045;52.986;6.014;2023-05-23T10:15:08;16.20;99.90
56162;DHT22;42045;52.986;6.014;2023-05-23T10:20:09;16.40;99.90
56162;DHT22;42045;52.986;6.014;2023-05-23T10:22:38;15.90;99.90
56162;DHT22;42045;52.986;6.014;2023-05-23T10:25:04;16.00;99.90
56162;DHT22;42045;52.986;6.014;2023-05-23T10:27:31;16.20;99.90
56162;DHT22;42045;52.986;6.014;2023-05-23T10:30:00;16.20;99.90
56162;DHT22;42045;52.986;6.014;2023-05-23T10:32:27;16.20;99.90
56162;DHT22;42045;52.986;6.014;2023-05-23T10:38:31;16.80;99.90
56162;DHT22;42045;52.986;6.014;2023-05-23T10:43:35;16.40;99.90
56162;DHT22;42045;52.986;6.014;2023-05-23T10:46:02;16.40;99.90
56162;DHT22;42045;52.986;6.014;2023-05-23T10:51:07;16.30;99.90
56162;DHT22;42045;52.986;6.014;2023-05-23T10:53:38;16.10;99.90
56162;DHT22;42045;52.986;6.014;2023-05-23T10:56:08;16.00;99.90
56162;DHT22;42045;52.986;6.014;2023-05-23T10:58:35;16.20;99.90
56162;DHT22;42045;52.986;6.014;2023-05-23T11:01:07;16.60;99.90
56162;DHT22;42045;52.986;6.014;2023-05-23T11:06:37;15.90;99.90
56162;DHT22;42045;52.986;6.014;2023-05-23T11:09:16;16.20;99.90
56162;DHT22;42045;52.986;6.014;2023-05-23T11:12:04;16.60;99.90
56162;DHT22;42045;52.986;6.014;2023-05-23T11:19:38;15.80;99.90
56162;DHT22;42045;52.986;6.014;2023-05-23T11:22:07;16.10;99.90
56162;DHT22;42045;52.986;6.014;2023-05-23T11:24:53;16.30;99.90
56162;DHT22;42045;52.986;6.014;2023-05-23T11:27:34;16.60;99.90
56162;DHT22;42045;52.986;6.014;2023-05-23T11:32:33;16.40;99.90
56162;DHT22;42045;52.986;6.014;2023-05-23T11:35:03;16.40;99.90
56162;DHT22;42045;52.986;6.014;2023-05-23T11:37:30;16.40;99.90
56162;DHT22;42045;52.986;6.014;2023-05-23T11:39:56;16.40;99.90
56162;DHT22;42045;52.986;6.014;2023-05-23T11:42:23;16.20;99.90
56162;DHT22;42045;52.986;6.014;2023-05-23T11:44:49;16.20;99.90
56162;DHT22;42045;52.986;6.014;2023-05-23T11:47:16;16.20;99.90
56162;DHT22;42045;52.986;6.014;2023-05-23T11:49:44;16.10;99.90
56162;DHT22;42045;52.986;6.014;2023-05-23T11:52:13;16.20;99.90
56162;DHT22;42045;52.986;6.014;2023-05-23T11:54:42;16.10;99.90
56162;DHT22;42045;52.986;6.014;2023-05-23T11:57:09;16.70;99.90
56162;DHT22;42045;52.986;6.014;2023-05-23T11:59:35;16.90;99.90
56162;DHT22;42045;52.986;6.014;2023-05-23T12:02:02;16.90;99.90
56162;DHT22;42045;52.986;6.014;2023-05-23T12:04:27;17.00;99.90
56162;DHT22;42045;52.986;6.014;2023-05-23T12:06:53;16.80;99.90
56162;DHT22;42045;52.986;6.014;2023-05-23T12:09:19;16.60;99.90
56162;DHT22;42045;52.986;6.014;2023-05-23T12:11:45;16.50;99.90
56162;DHT22;42045;52.986;6.014;2023-05-23T12:14:15;16.40;99.90
56162;DHT22;42045;52.986;6.014;2023-05-23T12:16:43;16.30;99.90
56162;DHT22;42045;52.986;6.014;2023-05-23T12:19:10;16.70;99.90
56162;DHT22;42045;52.986;6.014;2023-05-23T12:21:44;17.00;99.90
56162;DHT22;42045;52.986;6.014;2023-05-23T12:24:20;17.30;99.90
56162;DHT22;42045;52.986;6.014;2023-05-23T12:26:51;17.50;99.90
56162;DHT22;42045;52.986;6.014;2023-05-23T12:29:21;17.20;99.90
56162;DHT22;42045;52.986;6.014;2023-05-23T12:31:52;16.50;99.90
56162;DHT22;42045;52.986;6.014;2023-05-23T12:34:19;16.50;99.90
56162;DHT22;42045;52.986;6.014;2023-05-23T12:36:46;16.20;99.90
56162;DHT22;42045;52.986;6.014;2023-05-23T12:39:14;16.20;99.90
56162;DHT22;42045;52.986;6.014;2023-05-23T12:41:44;16.20;99.90
56162;DHT22;42045;52.986;6.014;2023-05-23T12:44:10;16.50;99.90
56162;DHT22;42045;52.986;6.014;2023-05-23T12:46:36;16.70;99.90
56162;DHT22;42045;52.986;6.014;2023-05-23T12:49:01;16.90;99.90
56162;DHT22;42045;52.986;6.014;2023-05-23T12:51:29;17.00;99.90
56162;DHT22;42045;52.986;6.014;2023-05-23T12:53:56;16.80;99.90
56162;DHT22;42045;52.986;6.014;2023-05-23T12:56:21;16.60;99.90
56162;DHT22;42045;52.986;6.014;2023-05-23T12:58:47;16.40;99.90
56162;DHT22;42045;52.986;6.014;2023-05-23T13:01:13;16.10;99.90
56162;DHT22;42045;52.986;6.014;2023-05-23T13:03:39;16.10;99.90
56162;DHT22;42045;52.986;6.014;2023-05-23T13:06:05;16.20;99.90
56162;DHT22;42045;52.986;6.014;2023-05-23T13:08:31;16.10;99.90
56162;DHT22;42045;52.986;6.014;2023-05-23T13:10:57;16.00;99.90
56162;DHT22;42045;52.986;6.014;2023-05-23T13:13:23;15.80;99.90
56162;DHT22;42045;52.986;6.014;2023-05-23T13:15:49;15.90;99.90
56162;DHT22;42045;52.986;6.014;2023-05-23T13:18:14;16.00;99.90
56162;DHT22;42045;52.986;6.014;2023-05-23T13:20:40;16.00;99.90
56162;DHT22;42045;52.986;6.014;2023-05-23T13:23:07;15.90;99.90
56162;DHT22;42045;52.986;6.014;2023-05-23T13:25:34;15.70;99.90
56162;DHT22;42045;52.986;6.014;2023-05-23T13:28:00;16.00;99.90
56162;DHT22;42045;52.986;6.014;2023-05-23T13:30:27;16.30;99.90
56162;DHT22;42045;52.986;6.014;2023-05-23T13:32:52;16.20;99.90
56162;DHT22;42045;52.986;6.014;2023-05-23T13:35:18;16.10;99.90
56162;DHT22;42045;52.986;6.014;2023-05-23T13:37:44;16.10;99.90
56162;DHT22;42045;52.986;6.014;2023-05-23T13:40:18;15.90;99.90
56162;DHT22;42045;52.986;6.014;2023-05-23T13:42:46;15.20;99.90
56162;DHT22;42045;52.986;6.014;2023-05-23T13:45:12;15.20;99.90
56162;DHT22;42045;52.986;6.014;2023-05-23T13:47:39;15.50;99.90
56162;DHT22;42045;52.986;6.014;2023-05-23T13:50:05;15.70;99.90
56162;DHT22;42045;52.986;6.014;2023-05-23T13:52:31;15.60;99.90
56162;DHT22;42045;52.986;6.014;2023-05-23T13:54:57;15.60;99.90
56162;DHT22;42045;52.986;6.014;2023-05-23T13:57:24;15.50;99.90
56162;DHT22;42045;52.986;6.014;2023-05-23T13:59:49;15.30;99.90
56162;DHT22;42045;52.986;6.014;2023-05-23T14:02:15;14.90;99.90
56162;DHT22;42045;52.986;6.014;2023-05-23T14:04:41;14.60;99.90
56162;DHT22;42045;52.986;6.014;2023-05-23T14:07:08;14.30;99.90
56162;DHT22;42045;52.986;6.014;2023-05-23T14:09:34;14.40;99.90
56162;DHT22;42045;52.986;6.014;2023-05-23T14:12:00;14.30;99.90
56162;DHT22;42045;52.986;6.014;2023-05-23T14:14:25;14.20;99.90
56162;DHT22;42045;52.986;6.014;2023-05-23T14:16:52;14.30;99.90
56162;DHT22;42045;52.986;6.014;2023-05-23T14:19:18;14.60;99.90
56162;DHT22;42045;52.986;6.014;2023-05-23T14:21:44;15.00;99.90
56162;DHT22;42045;52.986;6.014;2023-05-23T14:24:10;15.30;99.90
56162;DHT22;42045;52.986;6.014;2023-05-23T14:26:36;15.50;99.90
56162;DHT22;42045;52.986;6.014;2023-05-23T14:29:02;15.80;99.90
56162;DHT22;42045;52.986;6.014;2023-05-23T14:31:30;15.80;99.90
56162;DHT22;42045;52.986;6.014;2023-05-23T14:33:56;15.80;99.90
56162;DHT22;42045;52.986;6.014;2023-05-23T14:36:24;15.90;99.90
56162;DHT22;42045;52.986;6.014;2023-05-23T14:38:50;16.00;99.90
56162;DHT22;42045;52.986;6.014;2023-05-23T14:41:16;15.90;99.90
56162;DHT22;42045;52.986;6.014;2023-05-23T14:43:42;15.90;99.90
56162;DHT22;42045;52.986;6.014;2023-05-23T14:46:08;15.80;99.90
56162;DHT22;42045;52.986;6.014;2023-05-23T14:48:34;15.90;99.90
56162;DHT22;42045;52.986;6.014;2023-05-23T14:51:00;15.90;99.90
56162;DHT22;42045;52.986;6.014;2023-05-23T14:53:29;16.00;99.90
56162;DHT22;42045;52.986;6.014;2023-05-23T14:55:55;15.90;99.90
56162;DHT22;42045;52.986;6.014;2023-05-23T14:58:22;15.70;99.90
56162;DHT22;42045;52.986;6.014;2023-05-23T15:00:48;15.70;99.90
56162;DHT22;42045;52.986;6.014;2023-05-23T15:03:14;15.80;99.90
56162;DHT22;42045;52.986;6.014;2023-05-23T15:05:40;15.90;99.90
56162;DHT22;42045;52.986;6.014;2023-05-23T15:08:06;16.00;99.90
56162;DHT22;42045;52.986;6.014;2023-05-23T15:10:32;16.30;99.90
56162;DHT22;42045;52.986;6.014;2023-05-23T15:12:58;16.20;99.90
56162;DHT22;42045;52.986;6.014;2023-05-23T15:15:23;16.10;99.90
56162;DHT22;42045;52.986;6.014;2023-05-23T15:17:51;15.90;99.90
56162;DHT22;42045;52.986;6.014;2023-05-23T15:20:17;15.90;99.90
56162;DHT22;42045;52.986;6.014;2023-05-23T15:22:43;15.80;99.90
56162;DHT22;42045;52.986;6.014;2023-05-23T15:25:09;15.80;99.90
56162;DHT22;42045;52.986;6.014;2023-05-23T15:27:36;15.90;99.90
56162;DHT22;42045;52.986;6.014;2023-05-23T15:30:02;15.80;99.90
56162;DHT22;42045;52.986;6.014;2023-05-23T15:32:28;15.90;99.90
56162;DHT22;42045;52.986;6.014;2023-05-23T15:34:54;16.00;99.90
56162;DHT22;42045;52.986;6.014;2023-05-23T15:37:21;16.00;99.90
56162;DHT22;42045;52.986;6.014;2023-05-23T15:39:47;16.00;99.90
56162;DHT22;42045;52.986;6.014;2023-05-23T15:42:13;15.80;99.90
56162;DHT22;42045;52.986;6.014;2023-05-23T15:44:39;15.90;99.90
56162;DHT22;42045;52.986;6.014;2023-05-23T15:47:05;15.70;99.90
56162;DHT22;42045;52.986;6.014;2023-05-23T15:49:30;15.60;99.90
56162;DHT22;42045;52.986;6.014;2023-05-23T15:51:57;15.40;99.90
56162;DHT22;42045;52.986;6.014;2023-05-23T15:54:23;15.20;99.90
56162;DHT22;42045;52.986;6.014;2023-05-23T15:56:49;14.90;99.90
56162;DHT22;42045;52.986;6.014;2023-05-23T15:59:15;14.80;99.90
56162;DHT22;42045;52.986;6.014;2023-05-23T16:01:41;14.70;99.90
56162;DHT22;42045;52.986;6.014;2023-05-23T16:04:08;14.70;99.90